James Island, South Carolina
Current Conditions -  °F | °C
As of 2:15 PM on Monday 20 Oct 2014 (Local Time) from KJZI Reporting Station
Scattered Clouds Scattered Clouds  
Wind Chill: 75°   Ceiling: Unl
Heat Index: 75°   Visibility: 10mi
Dew Point: 61°   Wind: 8mph
Humidity: 61%   Direction: 170°S
Pressure: 30.05"   Gusts: NA
Location:  32.7248°N, 79.9608°W
Report Text: KJZI 201815Z AUTO 17007KT 10SM FEW037 SCT047 24/16 A3005 RMK A02 P000
Loading
Personal Weather Stations






























Interactive Weather Map New forecast layout! Learn more

10-Day Weather Forecast

Advertisements
Track Severe Weather on mobile